Hauptseite
METAR-TAF:

METAR-TAF

Flughäfen :

Heeresflugplatz Niederstetten

Niederstetten, Deutschland

Breite: 49-24N, Länge: 009-58E, Höhe: 468 m

Beobachtung

Neuester Wetterbericht von vor 22 Minuten, um 19:00 UTC
Wind 3 kt aus Südost
Temperatur 20°C
Luftfeuchtigkeit 56%
Luftdruck 1021 hPa
Sichtweite 10 km oder mehr
Leicht bewölkt in der Höhe von 34000 ft

METAR: ETHN 191900Z 14003KT 9999 FEW340 20/11 Q1021 BLU+FCST CANCEL

Zeit: 21:22 (19:22 UTC)

Prognose

Neuester Wetterbericht von vor 23 Minuten, um 18:59 UTC
Gültige Prognose vom 19 um 14 UTC bis 19 um 23 UTC
Wind 6 kt aus Süd/Südwest
Sichtweite: 1900 m
Leicht bewölkt in der Höhe von 6000 ft

TAF: ETHN 191859Z 1914/1923 21006KT 9999 NSW FEW060 CANCEL 1900

Wetterbeobachtungen und Prognosen von mehr als 4000 Flughäfen (METAR und TAF Bericht).

Die verfügbaren Stationen werden durch gelbe und rote Markierungen auf der Karte dargestellt.

Führen Sie die Maus auf sie, um den Namen der Station zu sehen.

Darauf klicken, um die Beobachtung von Wetterbeobachtungen und Prognosen zu sehen.

Um die Karte zu ändern : klicken Sie auf den grünen Tasten mit einem schwarzen Kreuz Zum Vergrößern, auf den grünen Button mit einem Gedankenstrich zu verkleinern, oder auf die grünen Pfeile für benachbarte Karten.


METAR-TAF: